Las Vegas, NM

12:31 AM MDT on August 22, 2014 (GMT -0600)
Las Vegas Municipal | Change Station
CLOSE
Current Station
Airport
Location: Las Vegas,
Elevation: 6877 ft
Nearby Weather Stations

Elev 6877 ft 35.65 °N, 105.14 °W | Updated 38 minutes ago

Clear
Clear
60 °F
Feels Like 60 °F
N
9
Wind Variable Wind from South

Today
High -- | Low -- °F
--% Chance of Precip.
Yesterday
High -- | Low -- °F
Precip. -- in
6:25 AM 7:41 PM
Waning Crescent, 10% visible
Pressure 29.89 in
Visibility 10.0 miles
Clouds Clear
Dew Point 41 °F
Humidity 49%
Rainfall 0.00 in
Snow Depth Not available.
UV 0 out of 12
Pollen 7.60 out of 12
Air Quality Not available.
Flu Activity Not available.
METAR KLVS 220553Z AUTO 17008KT 10SM CLR 16/05 A3023 RMK AO2 SLP120 60000 T01560050 10261 20156 51002

More Conditions Fewer Conditions

Pressure 29.89 in
Visibility 10.0 miles
Clouds Clear
Dew Point 41 °F
Humidity 49%
Rainfall 0.00 in
Snow Depth Not available.
UV 0 out of 12
Pollen 7.60 out of 12
Air Quality Not available.
Flu Activity Not available.
METAR KLVS 220553Z AUTO 17008KT 10SM CLR 16/05 A3023 RMK AO2 SLP120 60000 T01560050 10261 20156 51002

More Conditions Fewer Conditions

10-Day Weather Forecast

Almanac

Astronomy

Aug. 22, 2014 Rise Set
Actual Time 6:25 AM MDT 7:41 PM MDT
Civil Twilight 5:58 AM MDT 8:07 PM MDT
Nautical Twilight 5:27 AM MDT 8:39 PM MDT
Astronomical Twilight 4:53 AM MDT 9:12 PM MDT
Moon 3:52 AM MDT 5:49 PM MDT
Length of Visible Light 14h 09m
Length of Day
13h 15m
Tomorrow will be 2m 5s shorter.
Waning Crescent, 10% of the Moon is Illuminated
Today
Waning Crescent
Aug 25
New
Sep 2
First Quarter
Sep 8
Full
Sep 15
Last Quarter

Today's Extremes

State Highs State Lows

Community

WunderPhotos

Upload Photos

1,746,131 photos uploaded!

Nearby

Snow Depth

Station Depth Elevation
Wesner Springs 2 in 11120 ft
Gallegos Peak 0 in 9800 ft
Tolby 0 in 10180 ft
Quemazon 1 in 9500 ft
Red River Pass #2 0 in 9850 ft

Earthquake Activity

City Distance Mag. Time & Date
No recent earthquake activity has been reported nearby.
Minimum magnitude displayed is 2.5.

Coastal Water Temperatures

Place Temperature
No Stations Reporting

Nearby Weather Stations